createdAt,value
2023-12-29T00:02:15.106Z,7.80
2023-12-29T00:04:43.497Z,7.80
2023-12-29T00:07:10.639Z,7.80
2023-12-29T00:09:42.214Z,7.80
2023-12-29T00:12:10.142Z,7.80
2023-12-29T00:14:43.772Z,7.90
2023-12-29T00:17:10.892Z,7.90
2023-12-29T00:19:37.901Z,7.90
2023-12-29T00:22:05.389Z,7.90
2023-12-29T00:24:33.078Z,7.90
2023-12-29T00:27:00.903Z,7.90
2023-12-29T00:29:29.369Z,7.90
2023-12-29T00:31:56.472Z,7.80
2023-12-29T00:34:23.514Z,7.80
2023-12-29T00:36:50.594Z,7.90
2023-12-29T00:39:17.715Z,7.90
2023-12-29T00:41:44.775Z,7.90
2023-12-29T00:44:11.635Z,7.90
2023-12-29T00:46:39.747Z,7.90
2023-12-29T00:49:06.950Z,7.90
2023-12-29T00:51:33.963Z,7.90
2023-12-29T00:54:00.874Z,7.90
2023-12-29T00:56:27.700Z,7.90
2023-12-29T00:58:54.469Z,7.90
2023-12-29T01:01:21.546Z,7.90
2023-12-29T01:03:48.923Z,7.80
2023-12-29T01:06:15.875Z,7.80
2023-12-29T01:08:42.843Z,7.80
2023-12-29T01:11:11.304Z,7.80
2023-12-29T01:13:38.514Z,7.80
2023-12-29T01:16:05.712Z,7.80
2023-12-29T01:18:33.820Z,7.80
2023-12-29T01:21:00.842Z,7.80
2023-12-29T01:23:27.726Z,7.80
2023-12-29T01:25:54.639Z,7.80
2023-12-29T01:28:21.707Z,7.80
2023-12-29T01:30:48.778Z,7.80
2023-12-29T01:33:16.342Z,7.70
2023-12-29T01:35:43.533Z,7.80
2023-12-29T01:38:10.865Z,7.80
2023-12-29T01:40:47.389Z,7.90
2023-12-29T01:43:14.806Z,7.90
2023-12-29T01:48:12.101Z,7.90
2023-12-29T01:50:41.890Z,8.00
2023-12-29T01:53:09.043Z,8.00
2023-12-29T01:55:36.317Z,8.00
2023-12-29T01:58:04.299Z,8.00
2023-12-29T02:00:33.352Z,7.90
2023-12-29T02:03:00.657Z,8.00
2023-12-29T02:05:30.579Z,8.00
2023-12-29T02:07:57.554Z,8.00
2023-12-29T02:10:25.014Z,8.00
2023-12-29T02:12:55.440Z,8.00
2023-12-29T02:15:22.541Z,8.00
2023-12-29T02:17:54.060Z,8.00
2023-12-29T02:20:21.454Z,8.00
2023-12-29T02:22:48.422Z,8.00
2023-12-29T02:25:16.393Z,8.00
2023-12-29T02:28:16.585Z,8.00
2023-12-29T02:30:52.798Z,8.00
2023-12-29T02:33:22.861Z,8.00
2023-12-29T02:35:54.130Z,8.00
2023-12-29T02:38:21.295Z,8.00
2023-12-29T02:40:48.551Z,8.00
2023-12-29T02:43:15.810Z,8.00
2023-12-29T02:45:42.781Z,8.00
2023-12-29T02:48:10.764Z,8.00
2023-12-29T02:50:37.893Z,8.00
2023-12-29T02:53:07.756Z,8.00
2023-12-29T02:55:34.847Z,8.00
2023-12-29T02:58:02.037Z,8.00
2023-12-29T03:00:29.206Z,8.00
2023-12-29T03:02:56.569Z,8.00
2023-12-29T03:05:23.610Z,7.90
2023-12-29T03:07:50.464Z,7.90
2023-12-29T03:10:17.479Z,7.90
2023-12-29T03:12:44.514Z,7.90
2023-12-29T03:15:11.509Z,7.90
2023-12-29T03:17:38.487Z,7.90
2023-12-29T03:20:06.953Z,7.90
2023-12-29T03:22:33.888Z,7.90
2023-12-29T03:25:00.909Z,7.90
2023-12-29T03:27:27.890Z,7.90
2023-12-29T03:29:54.735Z,7.90
2023-12-29T03:32:21.651Z,7.90
2023-12-29T03:34:48.714Z,7.90
2023-12-29T03:37:15.815Z,7.90
2023-12-29T03:39:42.871Z,7.90
2023-12-29T03:42:09.894Z,7.90
2023-12-29T03:44:36.850Z,7.90
2023-12-29T03:47:03.911Z,7.90
2023-12-29T03:49:30.925Z,7.90
2023-12-29T03:51:57.777Z,7.90
2023-12-29T03:54:24.679Z,7.90
2023-12-29T03:56:51.509Z,7.80
2023-12-29T03:59:18.517Z,7.90
2023-12-29T04:01:45.958Z,7.70
2023-12-29T04:04:13.067Z,7.70
2023-12-29T04:06:40.029Z,7.60
2023-12-29T04:09:06.842Z,7.60
2023-12-29T04:11:33.684Z,7.60
2023-12-29T04:14:00.622Z,7.60
2023-12-29T04:16:27.504Z,7.60
2023-12-29T04:18:54.446Z,7.60
2023-12-29T04:21:21.412Z,7.60
2023-12-29T04:23:48.441Z,7.60
2023-12-29T04:26:15.270Z,7.50
2023-12-29T04:28:43.262Z,7.40
2023-12-29T04:31:10.349Z,7.50
2023-12-29T04:33:37.425Z,7.50
2023-12-29T04:36:04.530Z,7.60
2023-12-29T04:38:31.408Z,7.60
2023-12-29T04:40:58.283Z,7.60
2023-12-29T04:43:25.248Z,7.60
2023-12-29T04:45:52.162Z,7.60
2023-12-29T04:48:19.252Z,7.60
2023-12-29T04:50:46.131Z,7.70
2023-12-29T04:53:13.132Z,7.70
2023-12-29T04:55:39.992Z,7.60
2023-12-29T04:58:07.395Z,7.70
2023-12-29T05:00:34.624Z,7.60
2023-12-29T05:03:05.188Z,7.60
2023-12-29T05:05:32.138Z,7.60
2023-12-29T05:07:59.241Z,7.60
2023-12-29T05:10:27.372Z,7.60
2023-12-29T05:12:54.346Z,7.60
2023-12-29T05:15:21.341Z,7.60
2023-12-29T05:17:48.403Z,7.60
2023-12-29T05:20:15.331Z,7.60
2023-12-29T05:22:42.179Z,7.50
2023-12-29T05:25:09.547Z,7.60
2023-12-29T05:27:37.544Z,7.60
2023-12-29T05:30:05.980Z,7.60
2023-12-29T05:32:32.847Z,7.60
2023-12-29T05:35:00.488Z,7.70
2023-12-29T05:37:27.513Z,7.60
2023-12-29T05:39:54.526Z,7.60
2023-12-29T05:42:21.719Z,7.60
2023-12-29T05:44:48.681Z,7.60
2023-12-29T05:47:16.684Z,7.60
2023-12-29T05:49:43.860Z,7.60
2023-12-29T05:52:10.930Z,7.70
2023-12-29T05:54:37.969Z,7.70
2023-12-29T05:57:05.361Z,7.70
2023-12-29T05:59:32.330Z,7.70
2023-12-29T06:01:59.413Z,7.70
2023-12-29T06:04:26.292Z,7.70
2023-12-29T06:06:53.072Z,7.60
2023-12-29T06:09:19.894Z,7.70
2023-12-29T06:11:46.897Z,7.70
2023-12-29T06:14:13.784Z,7.70
2023-12-29T06:16:40.653Z,7.70
2023-12-29T06:19:07.613Z,7.70
2023-12-29T06:21:34.462Z,7.70
2023-12-29T06:24:01.360Z,7.70
2023-12-29T06:26:28.165Z,7.70
2023-12-29T06:28:55.008Z,7.60
2023-12-29T06:31:22.146Z,7.70
2023-12-29T06:33:49.208Z,7.70
2023-12-29T06:36:16.119Z,7.70
2023-12-29T06:38:43.075Z,7.70
2023-12-29T06:41:10.034Z,7.70
2023-12-29T06:43:36.976Z,7.70
2023-12-29T06:46:03.905Z,7.70
2023-12-29T06:48:30.950Z,7.70
2023-12-29T06:50:58.096Z,7.70
2023-12-29T06:53:24.895Z,7.70
2023-12-29T06:55:51.732Z,7.70
2023-12-29T06:58:18.498Z,7.70
2023-12-29T07:00:45.659Z,7.70
2023-12-29T07:03:16.638Z,7.70
2023-12-29T07:05:43.689Z,7.70
2023-12-29T07:08:13.818Z,7.70
2023-12-29T07:10:40.656Z,7.70
2023-12-29T07:13:07.546Z,7.60
2023-12-29T07:15:34.484Z,7.70
2023-12-29T07:18:01.772Z,7.60
2023-12-29T07:20:29.590Z,7.70
2023-12-29T07:22:56.416Z,7.70
2023-12-29T07:25:23.219Z,7.70
2023-12-29T07:27:50.048Z,7.60
2023-12-29T07:30:17.375Z,7.70
2023-12-29T07:32:44.345Z,7.70
2023-12-29T07:35:11.404Z,7.70
2023-12-29T07:37:38.312Z,7.70
2023-12-29T07:40:05.736Z,7.70
2023-12-29T07:42:33.621Z,7.70
2023-12-29T07:45:00.514Z,7.70
2023-12-29T07:47:27.439Z,7.70
2023-12-29T07:49:54.341Z,7.70
2023-12-29T07:52:21.152Z,7.70
2023-12-29T07:54:47.933Z,7.80
2023-12-29T07:57:14.704Z,7.80
2023-12-29T07:59:41.700Z,7.70
2023-12-29T08:02:08.465Z,7.70
2023-12-29T08:04:35.324Z,7.80
2023-12-29T08:07:02.434Z,7.80
2023-12-29T08:09:29.209Z,7.70
2023-12-29T08:11:55.947Z,7.80
2023-12-29T08:14:23.366Z,7.80
2023-12-29T08:16:50.089Z,7.80
2023-12-29T08:19:17.582Z,7.80
2023-12-29T08:21:44.454Z,7.80
2023-12-29T08:24:11.514Z,7.80
2023-12-29T08:26:46.081Z,7.90
2023-12-29T08:29:13.194Z,7.90
2023-12-29T08:31:40.087Z,7.90
2023-12-29T08:34:07.030Z,8.00
2023-12-29T08:36:34.164Z,8.00
2023-12-29T08:39:00.923Z,8.20
2023-12-29T08:41:29.514Z,8.20
2023-12-29T08:43:56.629Z,8.30
2023-12-29T08:46:29.408Z,8.30
2023-12-29T08:49:00.843Z,8.40
2023-12-29T08:51:27.907Z,8.40
2023-12-29T08:53:55.097Z,8.40
2023-12-29T08:56:30.440Z,8.50
2023-12-29T08:58:57.558Z,8.50
2023-12-29T09:01:24.566Z,8.50
2023-12-29T09:03:51.850Z,8.40
2023-12-29T09:06:18.949Z,8.40
2023-12-29T09:08:46.128Z,8.40
2023-12-29T09:11:14.595Z,8.40
2023-12-29T09:13:42.341Z,8.40
2023-12-29T09:16:11.753Z,8.40
2023-12-29T09:18:38.747Z,8.40
2023-12-29T09:21:06.098Z,8.50
2023-12-29T09:23:33.587Z,8.50
2023-12-29T09:26:01.028Z,8.50
2023-12-29T09:28:28.239Z,8.40
2023-12-29T09:30:58.869Z,8.50
2023-12-29T09:33:26.114Z,8.60
2023-12-29T09:35:53.101Z,8.60
2023-12-29T09:38:21.070Z,8.60
2023-12-29T09:40:50.517Z,8.70
2023-12-29T09:43:18.294Z,8.80
2023-12-29T09:45:48.140Z,8.90
2023-12-29T09:48:20.676Z,9.00
2023-12-29T09:50:51.478Z,8.90
2023-12-29T09:53:23.555Z,8.90
2023-12-29T09:55:54.087Z,8.90
2023-12-29T09:58:23.785Z,8.80
2023-12-29T10:00:51.855Z,8.80
2023-12-29T10:03:19.164Z,8.90
2023-12-29T10:05:52.956Z,8.80
2023-12-29T10:08:21.886Z,8.80
2023-12-29T10:10:51.479Z,8.90
2023-12-29T10:13:19.897Z,9.00
2023-12-29T10:15:57.941Z,9.10
2023-12-29T10:18:36.909Z,9.50
2023-12-29T10:21:13.368Z,9.90
2023-12-29T10:23:45.728Z,10.10
2023-12-29T10:26:19.978Z,10.30
2023-12-29T10:28:51.407Z,10.40
2023-12-29T10:31:25.920Z,10.30
2023-12-29T10:33:56.543Z,10.10
2023-12-29T10:36:26.356Z,9.90
2023-12-29T10:39:11.168Z,10.10
2023-12-29T10:41:38.409Z,10.30
2023-12-29T10:44:09.441Z,10.60
2023-12-29T10:46:37.074Z,10.70
2023-12-29T10:49:15.391Z,10.60
2023-12-29T10:51:42.625Z,10.60
2023-12-29T10:54:15.607Z,10.70
2023-12-29T10:56:42.872Z,10.80
2023-12-29T10:59:10.218Z,10.80
2023-12-29T11:01:37.904Z,10.90
2023-12-29T11:04:12.716Z,11.00
2023-12-29T11:06:46.636Z,11.10
2023-12-29T11:09:17.228Z,11.10
2023-12-29T11:11:44.908Z,11.20
2023-12-29T11:14:14.531Z,11.20
2023-12-29T11:16:46.772Z,11.30
2023-12-29T11:19:16.072Z,11.50
2023-12-29T11:21:47.979Z,11.60
2023-12-29T11:24:19.452Z,11.70
2023-12-29T11:26:54.262Z,11.80
2023-12-29T11:29:21.279Z,11.80
2023-12-29T11:31:51.552Z,11.80
2023-12-29T11:34:28.111Z,11.70
2023-12-29T11:37:23.264Z,11.80
2023-12-29T11:40:03.117Z,11.90
2023-12-29T11:42:38.465Z,11.70
2023-12-29T11:45:38.382Z,11.70
2023-12-29T11:48:06.759Z,11.70
2023-12-29T11:50:35.280Z,11.60
2023-12-29T11:53:07.044Z,11.60
2023-12-29T11:55:38.271Z,11.50
2023-12-29T11:58:32.650Z,11.50
2023-12-29T12:01:00.296Z,11.50
2023-12-29T12:03:29.941Z,11.40
2023-12-29T12:06:04.892Z,11.20
2023-12-29T12:08:33.161Z,11.20
2023-12-29T12:11:32.825Z,11.10
2023-12-29T12:14:00.799Z,11.10
2023-12-29T12:16:46.553Z,11.10
2023-12-29T12:19:14.560Z,11.10
2023-12-29T12:21:42.651Z,11.10
2023-12-29T12:24:09.996Z,11.10
2023-12-29T12:26:37.221Z,11.00
2023-12-29T12:29:06.455Z,11.00
2023-12-29T12:31:33.531Z,10.90
2023-12-29T12:34:06.041Z,10.90
2023-12-29T12:36:33.147Z,10.90
2023-12-29T12:39:00.129Z,10.90
2023-12-29T12:41:28.880Z,10.80
2023-12-29T12:44:16.640Z,10.80
2023-12-29T12:46:58.367Z,10.80
2023-12-29T12:49:32.650Z,10.80
2023-12-29T12:52:00.390Z,10.90
2023-12-29T12:54:27.939Z,10.90
2023-12-29T12:56:56.271Z,10.80
2023-12-29T12:59:26.638Z,10.90
2023-12-29T13:02:06.032Z,10.80
2023-12-29T13:04:34.385Z,10.80
2023-12-29T13:07:01.644Z,10.80
2023-12-29T13:09:29.288Z,10.90
2023-12-29T13:12:19.528Z,11.00
2023-12-29T13:14:50.263Z,11.00
2023-12-29T13:17:24.286Z,11.00
2023-12-29T13:20:01.116Z,11.10
2023-12-29T13:22:31.149Z,11.20
2023-12-29T13:24:58.267Z,11.20
2023-12-29T13:27:25.497Z,11.20
2023-12-29T13:29:53.314Z,11.10
2023-12-29T13:32:28.018Z,11.10
2023-12-29T13:35:12.296Z,11.10
2023-12-29T13:37:52.340Z,11.10
2023-12-29T13:40:28.636Z,11.00
2023-12-29T13:43:07.242Z,11.00
2023-12-29T13:45:35.421Z,11.00
2023-12-29T13:48:04.105Z,11.00
2023-12-29T13:50:31.503Z,11.00
2023-12-29T13:52:58.694Z,11.10
2023-12-29T13:55:28.969Z,11.00
2023-12-29T13:57:56.012Z,11.00
2023-12-29T14:00:25.631Z,11.00
2023-12-29T14:02:56.770Z,11.00
2023-12-29T14:05:37.071Z,11.00
2023-12-29T14:08:04.079Z,10.90
2023-12-29T14:10:32.591Z,10.90
2023-12-29T14:13:11.323Z,10.80
2023-12-29T14:15:43.969Z,10.80
2023-12-29T14:18:13.847Z,10.80
2023-12-29T14:20:44.290Z,10.80
2023-12-29T14:23:14.927Z,10.80
2023-12-29T14:25:41.851Z,10.80
2023-12-29T14:28:20.421Z,10.70
2023-12-29T14:30:50.021Z,10.80
2023-12-29T14:33:17.285Z,10.70
2023-12-29T14:35:44.680Z,10.70
2023-12-29T14:38:17.918Z,10.70
2023-12-29T14:40:46.911Z,10.70
2023-12-29T14:43:16.388Z,10.70
2023-12-29T14:45:43.378Z,10.60
2023-12-29T14:48:11.188Z,10.60
2023-12-29T14:50:40.458Z,10.60
2023-12-29T14:53:09.374Z,10.50
2023-12-29T14:55:38.525Z,10.50
2023-12-29T14:58:05.829Z,10.50
2023-12-29T15:00:32.727Z,10.40
2023-12-29T15:02:59.894Z,10.40
2023-12-29T15:05:27.153Z,10.40
2023-12-29T15:07:54.654Z,10.30
2023-12-29T15:10:24.821Z,10.30
2023-12-29T15:13:02.778Z,10.20
2023-12-29T15:15:33.937Z,10.20
2023-12-29T15:18:22.452Z,10.20
2023-12-29T15:20:49.709Z,10.10
2023-12-29T15:23:39.479Z,10.10
2023-12-29T15:26:10.097Z,10.00
2023-12-29T15:31:34.527Z,9.90
2023-12-29T15:34:11.399Z,9.80
2023-12-29T15:37:10.797Z,9.80
2023-12-29T15:39:39.787Z,9.70
2023-12-29T15:42:14.710Z,9.60
2023-12-29T15:44:48.210Z,9.60
2023-12-29T15:47:16.131Z,9.60
2023-12-29T15:49:54.036Z,9.50
2023-12-29T15:52:42.267Z,9.50
2023-12-29T15:55:14.750Z,9.40
2023-12-29T15:57:45.089Z,9.30
2023-12-29T16:00:18.845Z,9.30
2023-12-29T16:02:56.763Z,9.30
2023-12-29T16:05:27.088Z,9.30
2023-12-29T16:07:55.141Z,9.20
2023-12-29T16:10:30.516Z,9.20
2023-12-29T16:13:00.553Z,9.10
2023-12-29T16:15:27.967Z,9.00
2023-12-29T16:17:58.180Z,9.00
2023-12-29T16:20:30.342Z,9.00
2023-12-29T16:22:58.228Z,9.00
2023-12-29T16:25:25.690Z,8.90
2023-12-29T16:27:54.372Z,8.90
2023-12-29T16:30:21.371Z,8.90
2023-12-29T16:32:48.505Z,8.80
2023-12-29T16:35:17.527Z,8.80
2023-12-29T16:37:44.810Z,8.80
2023-12-29T16:40:12.935Z,8.80
2023-12-29T16:42:43.018Z,8.70
2023-12-29T16:45:10.399Z,8.70
2023-12-29T16:47:38.834Z,8.70
2023-12-29T16:50:07.406Z,8.60
2023-12-29T16:52:35.258Z,8.50
2023-12-29T16:55:02.740Z,8.50
2023-12-29T16:57:30.094Z,8.50
2023-12-29T17:00:02.645Z,8.50
2023-12-29T17:02:29.721Z,8.40
2023-12-29T17:04:56.926Z,8.40
2023-12-29T17:07:24.519Z,8.50
2023-12-29T17:09:51.829Z,8.40
2023-12-29T17:12:19.575Z,8.40
2023-12-29T17:14:46.910Z,8.40
2023-12-29T17:17:13.929Z,8.20
2023-12-29T17:19:41.211Z,8.10
2023-12-29T17:22:09.730Z,8.10
2023-12-29T17:24:40.000Z,8.00
2023-12-29T17:27:09.607Z,8.00
2023-12-29T17:29:36.945Z,7.90
2023-12-29T17:32:04.642Z,7.90
2023-12-29T17:34:33.724Z,7.80
2023-12-29T17:37:04.170Z,7.70
2023-12-29T17:39:31.297Z,7.60
2023-12-29T17:41:59.668Z,7.50
2023-12-29T17:44:29.888Z,7.50
2023-12-29T17:47:00.154Z,7.40
2023-12-29T17:49:29.886Z,7.40
2023-12-29T17:52:00.661Z,7.30
2023-12-29T17:54:28.368Z,7.30
2023-12-29T17:56:55.673Z,7.30
2023-12-29T17:59:22.902Z,7.10
2023-12-29T18:01:55.014Z,7.10
2023-12-29T18:04:29.365Z,7.10
2023-12-29T18:07:03.746Z,7.00
2023-12-29T18:09:40.603Z,7.00
2023-12-29T18:12:08.873Z,6.80
2023-12-29T18:14:44.391Z,6.70
2023-12-29T18:17:13.580Z,6.70
2023-12-29T18:19:43.358Z,6.70
2023-12-29T18:22:13.163Z,6.70
2023-12-29T18:24:41.538Z,6.70
2023-12-29T18:27:11.718Z,6.60
2023-12-29T18:29:39.027Z,6.50
2023-12-29T18:32:19.254Z,6.50
2023-12-29T18:34:51.660Z,6.40
2023-12-29T18:37:20.889Z,6.50
2023-12-29T18:39:51.518Z,6.40
2023-12-29T18:42:21.594Z,6.50
2023-12-29T18:44:51.546Z,6.40
2023-12-29T18:47:22.597Z,6.40
2023-12-29T18:49:50.383Z,6.50
2023-12-29T18:52:17.922Z,6.50
2023-12-29T18:54:47.851Z,6.50
2023-12-29T18:57:17.463Z,6.50
2023-12-29T18:59:50.709Z,6.50
2023-12-29T19:02:21.107Z,6.50
2023-12-29T19:04:49.243Z,6.60
2023-12-29T19:07:22.036Z,6.50
2023-12-29T19:09:52.729Z,6.50
2023-12-29T19:12:30.777Z,6.50
2023-12-29T19:14:58.089Z,6.40
2023-12-29T19:17:29.028Z,6.30
2023-12-29T19:19:56.894Z,6.30
2023-12-29T19:22:25.278Z,6.30
2023-12-29T19:24:55.629Z,6.30
2023-12-29T19:27:26.661Z,6.20
2023-12-29T19:29:53.988Z,6.20
2023-12-29T19:32:21.446Z,6.10
2023-12-29T19:34:51.118Z,6.10
2023-12-29T19:37:19.290Z,6.10
2023-12-29T19:39:46.904Z,6.10
2023-12-29T19:42:14.033Z,6.10
2023-12-29T19:44:42.263Z,6.00
2023-12-29T19:47:10.183Z,6.00
2023-12-29T19:49:52.128Z,6.20
2023-12-29T19:52:22.991Z,6.40
2023-12-29T19:54:49.815Z,6.50
2023-12-29T19:57:16.575Z,6.70
2023-12-29T19:59:43.628Z,6.80
2023-12-29T20:02:10.652Z,6.80
2023-12-29T20:04:37.418Z,6.90
2023-12-29T20:07:04.714Z,6.90
2023-12-29T20:09:33.376Z,6.90
2023-12-29T20:12:00.170Z,6.90
2023-12-29T20:14:27.493Z,7.00
2023-12-29T20:16:54.227Z,7.00
2023-12-29T20:19:21.022Z,7.00
2023-12-29T20:21:48.056Z,7.00
2023-12-29T20:24:15.987Z,7.00
2023-12-29T20:26:42.735Z,7.00
2023-12-29T20:29:09.515Z,7.00
2023-12-29T20:31:36.391Z,7.10
2023-12-29T20:34:03.728Z,7.10
2023-12-29T20:36:30.850Z,7.10
2023-12-29T20:39:00.128Z,7.10
2023-12-29T20:41:28.648Z,7.00
2023-12-29T20:43:56.906Z,7.00
2023-12-29T20:46:24.328Z,7.00
2023-12-29T20:48:52.423Z,7.00
2023-12-29T20:51:20.004Z,7.00
2023-12-29T20:53:47.350Z,6.90
2023-12-29T20:56:14.759Z,6.90
2023-12-29T20:58:41.608Z,6.90
2023-12-29T21:01:09.456Z,6.90
2023-12-29T21:03:36.892Z,6.90
2023-12-29T21:06:05.277Z,6.80
2023-12-29T21:08:33.660Z,6.80
2023-12-29T21:11:01.107Z,6.80
2023-12-29T21:13:28.774Z,6.80
2023-12-29T21:15:55.741Z,6.70
2023-12-29T21:18:24.110Z,6.60
2023-12-29T21:20:52.556Z,6.60
2023-12-29T21:23:20.325Z,6.50
2023-12-29T21:25:47.166Z,6.40
2023-12-29T21:28:14.030Z,6.40
2023-12-29T21:30:42.566Z,6.30
2023-12-29T21:33:09.557Z,6.30
2023-12-29T21:35:36.563Z,6.30
2023-12-29T21:38:04.224Z,6.20
2023-12-29T21:40:31.109Z,6.20
2023-12-29T21:42:58.112Z,6.10
2023-12-29T21:45:24.972Z,6.10
2023-12-29T21:47:51.756Z,6.10
2023-12-29T21:50:19.169Z,6.10
2023-12-29T21:52:46.407Z,6.10
2023-12-29T21:55:13.339Z,6.00
2023-12-29T21:57:40.456Z,6.00
2023-12-29T22:00:07.793Z,6.00
2023-12-29T22:02:34.613Z,6.00
2023-12-29T22:05:01.566Z,5.90
2023-12-29T22:07:28.473Z,5.90
2023-12-29T22:09:55.337Z,5.90
2023-12-29T22:12:22.025Z,5.90
2023-12-29T22:14:48.900Z,5.80
2023-12-29T22:17:15.926Z,5.80
2023-12-29T22:19:42.916Z,5.80
2023-12-29T22:22:10.032Z,5.80
2023-12-29T22:24:37.123Z,5.80
2023-12-29T22:27:04.141Z,5.80
2023-12-29T22:29:30.905Z,5.70
2023-12-29T22:31:57.812Z,5.70
2023-12-29T22:34:25.575Z,5.70
2023-12-29T22:36:52.809Z,5.70
2023-12-29T22:39:19.654Z,5.60
2023-12-29T22:41:48.286Z,5.60
2023-12-29T22:44:15.243Z,5.60
2023-12-29T22:46:42.008Z,5.50
2023-12-29T22:49:09.001Z,5.50
2023-12-29T22:51:35.885Z,5.50
2023-12-29T22:54:02.745Z,5.40
2023-12-29T22:56:29.537Z,5.40
2023-12-29T22:58:56.402Z,5.40
2023-12-29T23:01:24.171Z,5.40
2023-12-29T23:03:51.243Z,5.40
2023-12-29T23:06:18.148Z,5.40
2023-12-29T23:08:44.987Z,5.40
2023-12-29T23:11:11.849Z,5.50
2023-12-29T23:13:38.652Z,5.50
2023-12-29T23:16:06.028Z,5.50
2023-12-29T23:18:32.841Z,5.50
2023-12-29T23:20:59.688Z,5.50
2023-12-29T23:23:26.444Z,5.60
2023-12-29T23:25:54.404Z,5.40
2023-12-29T23:28:21.518Z,5.50
2023-12-29T23:30:48.442Z,5.50
2023-12-29T23:33:15.500Z,5.50
2023-12-29T23:35:42.746Z,5.50
2023-12-29T23:38:10.681Z,5.50
2023-12-29T23:40:37.966Z,5.60
2023-12-29T23:43:05.071Z,5.60
2023-12-29T23:45:32.350Z,5.70
2023-12-29T23:47:59.827Z,5.70
2023-12-29T23:50:26.553Z,5.70
2023-12-29T23:52:53.926Z,5.70
2023-12-29T23:55:24.049Z,5.70
2023-12-29T23:57:51.153Z,5.70
